ADDS METAR Data INFO
IDs: Format: Raw Decoded Include TAF

Data at: 2007 UTC 19 Oct 2017

KMFE 191953Z 10009KT 10SM CLR 32/18 A2998 RMK AO2 SLP151 T03170183